sensor_id;sensor_type;location;lat;lon;timestamp;P1;durP1;ratioP1;P2;durP2;ratioP2
703;SDS011;335;48.694;9.120;2023-03-21T00:01:48;2.70;;;2.60;;
703;SDS011;335;48.694;9.120;2023-03-21T00:04:14;3.10;;;2.90;;
703;SDS011;335;48.694;9.120;2023-03-21T00:06:40;2.60;;;2.50;;
703;SDS011;335;48.694;9.120;2023-03-21T00:09:05;4.30;;;2.60;;
703;SDS011;335;48.694;9.120;2023-03-21T00:11:30;3.33;;;3.03;;
703;SDS011;335;48.694;9.120;2023-03-21T00:13:56;2.60;;;2.40;;
703;SDS011;335;48.694;9.120;2023-03-21T00:16:22;2.93;;;2.73;;
703;SDS011;335;48.694;9.120;2023-03-21T00:18:48;4.70;;;3.37;;
703;SDS011;335;48.694;9.120;2023-03-21T00:21:17;2.50;;;2.37;;
703;SDS011;335;48.694;9.120;2023-03-21T00:23:43;3.00;;;2.80;;
703;SDS011;335;48.694;9.120;2023-03-21T00:26:10;2.60;;;2.50;;
703;SDS011;335;48.694;9.120;2023-03-21T00:28:36;3.47;;;3.20;;
703;SDS011;335;48.694;9.120;2023-03-21T00:31:02;2.87;;;2.77;;
703;SDS011;335;48.694;9.120;2023-03-21T00:33:28;3.30;;;2.90;;
703;SDS011;335;48.694;9.120;2023-03-21T00:35:53;3.70;;;2.93;;
703;SDS011;335;48.694;9.120;2023-03-21T00:38:20;2.90;;;2.80;;
703;SDS011;335;48.694;9.120;2023-03-21T00:40:46;3.23;;;2.93;;
703;SDS011;335;48.694;9.120;2023-03-21T00:43:11;2.87;;;2.67;;
703;SDS011;335;48.694;9.120;2023-03-21T00:45:41;3.00;;;2.80;;
703;SDS011;335;48.694;9.120;2023-03-21T00:48:07;2.97;;;2.83;;
703;SDS011;335;48.694;9.120;2023-03-21T00:50:32;3.20;;;3.00;;
703;SDS011;335;48.694;9.120;2023-03-21T00:52:58;3.57;;;3.27;;
703;SDS011;335;48.694;9.120;2023-03-21T00:55:24;3.13;;;2.93;;
703;SDS011;335;48.694;9.120;2023-03-21T00:57:49;2.87;;;2.67;;
703;SDS011;335;48.694;9.120;2023-03-21T01:00:15;3.83;;;3.20;;
703;SDS011;335;48.694;9.120;2023-03-21T01:02:42;3.33;;;3.03;;
703;SDS011;335;48.694;9.120;2023-03-21T01:05:20;2.77;;;2.67;;
703;SDS011;335;48.694;9.120;2023-03-21T01:08:05;3.23;;;3.03;;
703;SDS011;335;48.694;9.120;2023-03-21T01:10:31;3.33;;;3.13;;
703;SDS011;335;48.694;9.120;2023-03-21T01:12:57;3.40;;;3.20;;
703;SDS011;335;48.694;9.120;2023-03-21T01:15:22;3.80;;;3.37;;
703;SDS011;335;48.694;9.120;2023-03-21T01:17:47;2.80;;;2.47;;
703;SDS011;335;48.694;9.120;2023-03-21T01:20:13;2.30;;;2.20;;
703;SDS011;335;48.694;9.120;2023-03-21T01:22:38;3.23;;;3.00;;
703;SDS011;335;48.694;9.120;2023-03-21T01:25:03;2.53;;;2.43;;
703;SDS011;335;48.694;9.120;2023-03-21T01:27:29;1.83;;;1.73;;
703;SDS011;335;48.694;9.120;2023-03-21T01:29:54;2.10;;;2.00;;
703;SDS011;335;48.694;9.120;2023-03-21T01:32:20;2.20;;;1.97;;
703;SDS011;335;48.694;9.120;2023-03-21T01:34:45;2.40;;;2.20;;
703;SDS011;335;48.694;9.120;2023-03-21T01:37:11;2.73;;;2.50;;
703;SDS011;335;48.694;9.120;2023-03-21T01:39:36;2.30;;;2.10;;
703;SDS011;335;48.694;9.120;2023-03-21T01:42:01;2.37;;;2.27;;
703;SDS011;335;48.694;9.120;2023-03-21T01:44:27;2.90;;;2.70;;
703;SDS011;335;48.694;9.120;2023-03-21T01:46:52;2.33;;;2.23;;
703;SDS011;335;48.694;9.120;2023-03-21T01:51:59;2.23;;;2.13;;
703;SDS011;335;48.694;9.120;2023-03-21T01:54:28;5.03;;;3.63;;
703;SDS011;335;48.694;9.120;2023-03-21T01:56:56;4.90;;;2.93;;
703;SDS011;335;48.694;9.120;2023-03-21T01:59:28;3.80;;;3.50;;
703;SDS011;335;48.694;9.120;2023-03-21T02:01:56;3.40;;;3.30;;
703;SDS011;335;48.694;9.120;2023-03-21T02:04:25;2.87;;;2.73;;
703;SDS011;335;48.694;9.120;2023-03-21T02:06:54;2.60;;;2.40;;
703;SDS011;335;48.694;9.120;2023-03-21T02:09:23;2.00;;;1.80;;
703;SDS011;335;48.694;9.120;2023-03-21T02:11:51;2.40;;;2.20;;
703;SDS011;335;48.694;9.120;2023-03-21T02:14:18;2.40;;;2.20;;
703;SDS011;335;48.694;9.120;2023-03-21T02:16:46;2.33;;;2.23;;
703;SDS011;335;48.694;9.120;2023-03-21T02:22:11;2.57;;;2.47;;
703;SDS011;335;48.694;9.120;2023-03-21T02:27:31;2.80;;;2.60;;
703;SDS011;335;48.694;9.120;2023-03-21T02:37:47;2.63;;;2.53;;
703;SDS011;335;48.694;9.120;2023-03-21T02:40:17;2.47;;;2.37;;
703;SDS011;335;48.694;9.120;2023-03-21T02:42:54;2.80;;;2.60;;
703;SDS011;335;48.694;9.120;2023-03-21T02:45:30;2.63;;;2.53;;
703;SDS011;335;48.694;9.120;2023-03-21T02:48:20;2.80;;;2.60;;
703;SDS011;335;48.694;9.120;2023-03-21T02:50:49;3.07;;;2.83;;
703;SDS011;335;48.694;9.120;2023-03-21T02:53:17;2.60;;;2.50;;
703;SDS011;335;48.694;9.120;2023-03-21T02:55:44;2.70;;;2.60;;
703;SDS011;335;48.694;9.120;2023-03-21T02:58:11;2.63;;;2.50;;
703;SDS011;335;48.694;9.120;2023-03-21T03:00:40;2.23;;;2.13;;
703;SDS011;335;48.694;9.120;2023-03-21T03:03:07;2.70;;;2.60;;
703;SDS011;335;48.694;9.120;2023-03-21T03:05:33;2.63;;;2.53;;
703;SDS011;335;48.694;9.120;2023-03-21T03:08:14;3.50;;;3.13;;
703;SDS011;335;48.694;9.120;2023-03-21T03:11:13;3.07;;;2.87;;
703;SDS011;335;48.694;9.120;2023-03-21T03:18:57;3.10;;;2.90;;
703;SDS011;335;48.694;9.120;2023-03-21T03:21:31;3.70;;;3.50;;
703;SDS011;335;48.694;9.120;2023-03-21T03:24:20;3.20;;;3.00;;
703;SDS011;335;48.694;9.120;2023-03-21T03:26:58;3.60;;;3.30;;
703;SDS011;335;48.694;9.120;2023-03-21T03:29:29;3.07;;;2.87;;
703;SDS011;335;48.694;9.120;2023-03-21T03:32:06;3.17;;;2.97;;
703;SDS011;335;48.694;9.120;2023-03-21T03:34:36;3.70;;;3.50;;
703;SDS011;335;48.694;9.120;2023-03-21T03:37:06;3.57;;;3.30;;
703;SDS011;335;48.694;9.120;2023-03-21T03:39:38;3.57;;;3.37;;
703;SDS011;335;48.694;9.120;2023-03-21T03:42:18;3.07;;;2.90;;
703;SDS011;335;48.694;9.120;2023-03-21T03:44:46;3.60;;;3.30;;
703;SDS011;335;48.694;9.120;2023-03-21T03:47:15;4.10;;;3.80;;
703;SDS011;335;48.694;9.120;2023-03-21T03:49:48;3.70;;;3.50;;
703;SDS011;335;48.694;9.120;2023-03-21T03:52:37;3.30;;;3.10;;
703;SDS011;335;48.694;9.120;2023-03-21T03:55:05;3.73;;;3.40;;
703;SDS011;335;48.694;9.120;2023-03-21T03:57:30;3.83;;;2.73;;
703;SDS011;335;48.694;9.120;2023-03-21T03:59:56;3.30;;;3.10;;
703;SDS011;335;48.694;9.120;2023-03-21T04:02:22;3.33;;;3.03;;
703;SDS011;335;48.694;9.120;2023-03-21T04:04:47;3.77;;;3.40;;
703;SDS011;335;48.694;9.120;2023-03-21T04:07:16;2.97;;;2.77;;
703;SDS011;335;48.694;9.120;2023-03-21T04:09:42;3.30;;;3.10;;
703;SDS011;335;48.694;9.120;2023-03-21T04:12:07;3.50;;;3.30;;
703;SDS011;335;48.694;9.120;2023-03-21T04:14:33;2.87;;;2.77;;
703;SDS011;335;48.694;9.120;2023-03-21T04:16:58;3.90;;;3.70;;
703;SDS011;335;48.694;9.120;2023-03-21T04:19:23;4.00;;;3.70;;
703;SDS011;335;48.694;9.120;2023-03-21T04:21:49;3.93;;;3.60;;
703;SDS011;335;48.694;9.120;2023-03-21T04:24:14;4.10;;;3.70;;
703;SDS011;335;48.694;9.120;2023-03-21T04:26:40;3.80;;;3.60;;
703;SDS011;335;48.694;9.120;2023-03-21T04:29:05;3.73;;;3.47;;
703;SDS011;335;48.694;9.120;2023-03-21T04:31:31;3.60;;;3.30;;
703;SDS011;335;48.694;9.120;2023-03-21T04:34:02;3.80;;;3.50;;
703;SDS011;335;48.694;9.120;2023-03-21T04:36:33;4.23;;;3.93;;
703;SDS011;335;48.694;9.120;2023-03-21T04:39:03;4.13;;;3.73;;
703;SDS011;335;48.694;9.120;2023-03-21T04:41:32;4.23;;;3.80;;
703;SDS011;335;48.694;9.120;2023-03-21T04:43:58;4.43;;;3.60;;
703;SDS011;335;48.694;9.120;2023-03-21T04:46:23;4.20;;;3.90;;
703;SDS011;335;48.694;9.120;2023-03-21T04:48:48;4.13;;;3.83;;
703;SDS011;335;48.694;9.120;2023-03-21T04:51:14;3.77;;;3.50;;
703;SDS011;335;48.694;9.120;2023-03-21T04:53:40;4.97;;;4.27;;
703;SDS011;335;48.694;9.120;2023-03-21T04:56:09;4.20;;;3.87;;
703;SDS011;335;48.694;9.120;2023-03-21T04:58:35;4.87;;;4.47;;
703;SDS011;335;48.694;9.120;2023-03-21T05:01:00;3.90;;;3.60;;
703;SDS011;335;48.694;9.120;2023-03-21T05:03:26;3.93;;;3.63;;
703;SDS011;335;48.694;9.120;2023-03-21T05:05:58;4.37;;;3.70;;
703;SDS011;335;48.694;9.120;2023-03-21T05:08:24;4.37;;;3.97;;
703;SDS011;335;48.694;9.120;2023-03-21T05:10:49;4.80;;;4.33;;
703;SDS011;335;48.694;9.120;2023-03-21T05:13:15;3.80;;;3.50;;
703;SDS011;335;48.694;9.120;2023-03-21T05:15:40;3.13;;;2.93;;
703;SDS011;335;48.694;9.120;2023-03-21T05:18:05;3.43;;;3.20;;
703;SDS011;335;48.694;9.120;2023-03-21T05:20:37;4.03;;;3.40;;
703;SDS011;335;48.694;9.120;2023-03-21T05:23:06;4.00;;;3.70;;
703;SDS011;335;48.694;9.120;2023-03-21T05:25:34;4.40;;;3.70;;
703;SDS011;335;48.694;9.120;2023-03-21T05:28:02;4.17;;;3.87;;
703;SDS011;335;48.694;9.120;2023-03-21T05:30:28;3.40;;;2.90;;
703;SDS011;335;48.694;9.120;2023-03-21T05:32:54;3.13;;;2.93;;
703;SDS011;335;48.694;9.120;2023-03-21T05:35:19;3.20;;;3.00;;
703;SDS011;335;48.694;9.120;2023-03-21T05:37:44;2.70;;;2.60;;
703;SDS011;335;48.694;9.120;2023-03-21T05:40:10;3.27;;;3.17;;
703;SDS011;335;48.694;9.120;2023-03-21T05:42:36;4.10;;;3.80;;
703;SDS011;335;48.694;9.120;2023-03-21T05:45:01;3.40;;;3.20;;
703;SDS011;335;48.694;9.120;2023-03-21T05:47:27;3.60;;;3.40;;
703;SDS011;335;48.694;9.120;2023-03-21T05:49:52;3.50;;;3.20;;
703;SDS011;335;48.694;9.120;2023-03-21T05:52:18;3.60;;;2.90;;
703;SDS011;335;48.694;9.120;2023-03-21T05:54:43;3.70;;;3.10;;
703;SDS011;335;48.694;9.120;2023-03-21T05:57:08;3.47;;;3.27;;
703;SDS011;335;48.694;9.120;2023-03-21T05:59:34;3.00;;;2.80;;
703;SDS011;335;48.694;9.120;2023-03-21T06:02:00;2.90;;;2.70;;
703;SDS011;335;48.694;9.120;2023-03-21T06:04:26;3.07;;;2.90;;
703;SDS011;335;48.694;9.120;2023-03-21T06:06:51;3.67;;;2.70;;
703;SDS011;335;48.694;9.120;2023-03-21T06:09:17;2.80;;;2.63;;
703;SDS011;335;48.694;9.120;2023-03-21T06:11:45;2.93;;;2.77;;
703;SDS011;335;48.694;9.120;2023-03-21T06:14:13;3.97;;;3.67;;
703;SDS011;335;48.694;9.120;2023-03-21T06:16:39;3.47;;;3.17;;
703;SDS011;335;48.694;9.120;2023-03-21T06:19:04;3.40;;;3.20;;
703;SDS011;335;48.694;9.120;2023-03-21T06:21:30;3.33;;;3.07;;
703;SDS011;335;48.694;9.120;2023-03-21T06:23:55;4.47;;;3.57;;
703;SDS011;335;48.694;9.120;2023-03-21T06:26:20;3.93;;;3.67;;
703;SDS011;335;48.694;9.120;2023-03-21T06:28:50;3.20;;;3.00;;
703;SDS011;335;48.694;9.120;2023-03-21T06:31:16;3.53;;;3.33;;
703;SDS011;335;48.694;9.120;2023-03-21T06:33:41;3.80;;;3.50;;
703;SDS011;335;48.694;9.120;2023-03-21T06:36:07;3.70;;;3.30;;
703;SDS011;335;48.694;9.120;2023-03-21T06:38:32;4.07;;;3.40;;
703;SDS011;335;48.694;9.120;2023-03-21T06:41:01;5.03;;;3.60;;
703;SDS011;335;48.694;9.120;2023-03-21T06:43:28;3.87;;;3.17;;
703;SDS011;335;48.694;9.120;2023-03-21T06:45:54;3.70;;;3.50;;
703;SDS011;335;48.694;9.120;2023-03-21T06:48:19;4.57;;;4.17;;
703;SDS011;335;48.694;9.120;2023-03-21T06:50:46;4.60;;;4.23;;
703;SDS011;335;48.694;9.120;2023-03-21T06:53:15;4.10;;;3.80;;
703;SDS011;335;48.694;9.120;2023-03-21T06:55:41;3.00;;;2.80;;
703;SDS011;335;48.694;9.120;2023-03-21T06:58:06;4.57;;;4.20;;
703;SDS011;335;48.694;9.120;2023-03-21T07:00:31;4.03;;;3.83;;
703;SDS011;335;48.694;9.120;2023-03-21T07:02:57;3.97;;;3.70;;
703;SDS011;335;48.694;9.120;2023-03-21T07:05:22;3.90;;;3.50;;
703;SDS011;335;48.694;9.120;2023-03-21T07:07:48;4.27;;;3.53;;
703;SDS011;335;48.694;9.120;2023-03-21T07:10:13;4.47;;;4.10;;
703;SDS011;335;48.694;9.120;2023-03-21T07:12:39;3.40;;;3.20;;
703;SDS011;335;48.694;9.120;2023-03-21T07:15:05;7.37;;;4.30;;
703;SDS011;335;48.694;9.120;2023-03-21T07:17:32;3.00;;;2.80;;
703;SDS011;335;48.694;9.120;2023-03-21T07:19:58;3.30;;;3.10;;
703;SDS011;335;48.694;9.120;2023-03-21T07:22:23;3.90;;;3.60;;
703;SDS011;335;48.694;9.120;2023-03-21T07:24:49;4.30;;;3.30;;
703;SDS011;335;48.694;9.120;2023-03-21T07:27:15;3.87;;;3.60;;
703;SDS011;335;48.694;9.120;2023-03-21T07:29:41;4.23;;;3.40;;
703;SDS011;335;48.694;9.120;2023-03-21T07:32:07;3.50;;;3.20;;
703;SDS011;335;48.694;9.120;2023-03-21T07:34:34;3.73;;;3.53;;
703;SDS011;335;48.694;9.120;2023-03-21T07:36:59;3.43;;;3.20;;
703;SDS011;335;48.694;9.120;2023-03-21T07:39:25;3.00;;;2.80;;
703;SDS011;335;48.694;9.120;2023-03-21T07:41:51;3.50;;;3.30;;
703;SDS011;335;48.694;9.120;2023-03-21T07:44:16;2.93;;;2.63;;
703;SDS011;335;48.694;9.120;2023-03-21T07:46:41;3.07;;;2.90;;
703;SDS011;335;48.694;9.120;2023-03-21T07:49:07;3.10;;;2.90;;
703;SDS011;335;48.694;9.120;2023-03-21T07:51:33;3.53;;;3.23;;
703;SDS011;335;48.694;9.120;2023-03-21T07:53:59;5.20;;;3.63;;
703;SDS011;335;48.694;9.120;2023-03-21T07:56:25;3.57;;;3.27;;
703;SDS011;335;48.694;9.120;2023-03-21T07:58:50;3.23;;;3.00;;
703;SDS011;335;48.694;9.120;2023-03-21T08:01:15;2.80;;;2.60;;
703;SDS011;335;48.694;9.120;2023-03-21T08:03:41;2.70;;;2.60;;
703;SDS011;335;48.694;9.120;2023-03-21T08:06:07;3.00;;;2.80;;
703;SDS011;335;48.694;9.120;2023-03-21T08:08:33;2.63;;;2.53;;
703;SDS011;335;48.694;9.120;2023-03-21T08:10:58;2.70;;;2.50;;
703;SDS011;335;48.694;9.120;2023-03-21T08:13:24;2.47;;;1.90;;
703;SDS011;335;48.694;9.120;2023-03-21T08:15:50;2.80;;;2.50;;
703;SDS011;335;48.694;9.120;2023-03-21T08:18:15;2.80;;;2.40;;
703;SDS011;335;48.694;9.120;2023-03-21T08:20:40;1.97;;;1.87;;
703;SDS011;335;48.694;9.120;2023-03-21T08:23:06;2.40;;;2.23;;
703;SDS011;335;48.694;9.120;2023-03-21T08:25:31;2.17;;;2.07;;
703;SDS011;335;48.694;9.120;2023-03-21T08:27:57;2.30;;;2.13;;
703;SDS011;335;48.694;9.120;2023-03-21T08:30:23;4.23;;;2.20;;
703;SDS011;335;48.694;9.120;2023-03-21T08:32:50;2.30;;;2.20;;
703;SDS011;335;48.694;9.120;2023-03-21T08:35:16;2.27;;;2.17;;
703;SDS011;335;48.694;9.120;2023-03-21T08:37:42;2.13;;;1.53;;
703;SDS011;335;48.694;9.120;2023-03-21T08:40:12;1.60;;;1.50;;
703;SDS011;335;48.694;9.120;2023-03-21T08:42:39;1.90;;;1.80;;
703;SDS011;335;48.694;9.120;2023-03-21T08:45:06;2.30;;;2.10;;
703;SDS011;335;48.694;9.120;2023-03-21T08:47:32;2.00;;;1.87;;
703;SDS011;335;48.694;9.120;2023-03-21T08:49:58;2.33;;;2.23;;
703;SDS011;335;48.694;9.120;2023-03-21T08:52:23;2.63;;;2.43;;
703;SDS011;335;48.694;9.120;2023-03-21T08:54:49;1.30;;;1.27;;
703;SDS011;335;48.694;9.120;2023-03-21T08:57:15;1.73;;;1.47;;
703;SDS011;335;48.694;9.120;2023-03-21T08:59:40;2.13;;;1.30;;
703;SDS011;335;48.694;9.120;2023-03-21T09:02:06;1.33;;;1.23;;
703;SDS011;335;48.694;9.120;2023-03-21T09:04:31;1.33;;;1.33;;
703;SDS011;335;48.694;9.120;2023-03-21T09:06:57;2.07;;;1.30;;
703;SDS011;335;48.694;9.120;2023-03-21T09:09:25;1.30;;;1.20;;
703;SDS011;335;48.694;9.120;2023-03-21T09:11:53;1.33;;;1.33;;
703;SDS011;335;48.694;9.120;2023-03-21T09:14:18;1.30;;;1.20;;
703;SDS011;335;48.694;9.120;2023-03-21T09:16:44;1.57;;;1.47;;
703;SDS011;335;48.694;9.120;2023-03-21T09:19:10;1.53;;;1.43;;
703;SDS011;335;48.694;9.120;2023-03-21T09:21:35;2.13;;;1.57;;
703;SDS011;335;48.694;9.120;2023-03-21T09:24:02;1.93;;;1.70;;
703;SDS011;335;48.694;9.120;2023-03-21T09:26:29;1.30;;;1.30;;
703;SDS011;335;48.694;9.120;2023-03-21T09:28:55;1.37;;;1.27;;
703;SDS011;335;48.694;9.120;2023-03-21T09:31:20;1.57;;;1.47;;
703;SDS011;335;48.694;9.120;2023-03-21T09:33:56;1.53;;;1.43;;
703;SDS011;335;48.694;9.120;2023-03-21T09:36:22;1.70;;;1.30;;
703;SDS011;335;48.694;9.120;2023-03-21T09:38:48;1.30;;;1.20;;
703;SDS011;335;48.694;9.120;2023-03-21T09:44:18;1.17;;;1.17;;
703;SDS011;335;48.694;9.120;2023-03-21T09:47:01;1.50;;;1.40;;
703;SDS011;335;48.694;9.120;2023-03-21T09:49:31;1.30;;;1.30;;
703;SDS011;335;48.694;9.120;2023-03-21T09:52:00;1.17;;;1.10;;
703;SDS011;335;48.694;9.120;2023-03-21T09:54:32;3.37;;;1.20;;
703;SDS011;335;48.694;9.120;2023-03-21T09:57:06;1.40;;;1.30;;
703;SDS011;335;48.694;9.120;2023-03-21T09:59:38;1.40;;;1.40;;
703;SDS011;335;48.694;9.120;2023-03-21T10:02:15;0.83;;;0.83;;
703;SDS011;335;48.694;9.120;2023-03-21T10:04:43;1.20;;;1.00;;
703;SDS011;335;48.694;9.120;2023-03-21T10:07:10;1.43;;;1.33;;
703;SDS011;335;48.694;9.120;2023-03-21T10:09:42;0.90;;;0.80;;
703;SDS011;335;48.694;9.120;2023-03-21T10:12:13;1.30;;;1.27;;
703;SDS011;335;48.694;9.120;2023-03-21T10:14:49;0.90;;;0.90;;
703;SDS011;335;48.694;9.120;2023-03-21T10:17:27;1.07;;;0.97;;
703;SDS011;335;48.694;9.120;2023-03-21T10:20:00;1.30;;;1.20;;
703;SDS011;335;48.694;9.120;2023-03-21T10:22:34;1.00;;;1.00;;
703;SDS011;335;48.694;9.120;2023-03-21T10:25:00;1.00;;;0.90;;
703;SDS011;335;48.694;9.120;2023-03-21T10:27:25;1.00;;;1.00;;
703;SDS011;335;48.694;9.120;2023-03-21T10:29:51;1.17;;;1.07;;
703;SDS011;335;48.694;9.120;2023-03-21T10:32:17;2.00;;;1.10;;
703;SDS011;335;48.694;9.120;2023-03-21T10:34:44;1.37;;;1.10;;
703;SDS011;335;48.694;9.120;2023-03-21T10:37:12;1.10;;;1.10;;
703;SDS011;335;48.694;9.120;2023-03-21T10:39:38;1.40;;;1.20;;
703;SDS011;335;48.694;9.120;2023-03-21T10:42:05;1.07;;;1.07;;
703;SDS011;335;48.694;9.120;2023-03-21T10:44:47;1.27;;;0.90;;
703;SDS011;335;48.694;9.120;2023-03-21T10:47:16;0.80;;;0.80;;
703;SDS011;335;48.694;9.120;2023-03-21T10:49:44;1.07;;;1.00;;
703;SDS011;335;48.694;9.120;2023-03-21T10:52:16;1.60;;;1.53;;
703;SDS011;335;48.694;9.120;2023-03-21T10:54:43;1.93;;;1.83;;
703;SDS011;335;48.694;9.120;2023-03-21T10:57:15;1.63;;;1.63;;
703;SDS011;335;48.694;9.120;2023-03-21T10:59:44;3.23;;;1.50;;
703;SDS011;335;48.694;9.120;2023-03-21T11:02:27;1.83;;;1.73;;
703;SDS011;335;48.694;9.120;2023-03-21T11:04:55;2.17;;;2.07;;
703;SDS011;335;48.694;9.120;2023-03-21T11:07:22;1.90;;;1.90;;
703;SDS011;335;48.694;9.120;2023-03-21T11:09:56;2.13;;;2.13;;
703;SDS011;335;48.694;9.120;2023-03-21T11:12:32;2.50;;;2.40;;
703;SDS011;335;48.694;9.120;2023-03-21T11:18:13;1.57;;;1.47;;
703;SDS011;335;48.694;9.120;2023-03-21T11:20:50;1.60;;;1.50;;
703;SDS011;335;48.694;9.120;2023-03-21T11:23:17;1.33;;;1.10;;
703;SDS011;335;48.694;9.120;2023-03-21T11:25:43;1.30;;;1.30;;
703;SDS011;335;48.694;9.120;2023-03-21T11:28:15;1.40;;;1.20;;
703;SDS011;335;48.694;9.120;2023-03-21T11:30:48;1.90;;;1.80;;
703;SDS011;335;48.694;9.120;2023-03-21T11:33:30;2.00;;;1.90;;
703;SDS011;335;48.694;9.120;2023-03-21T11:36:31;1.50;;;1.43;;
703;SDS011;335;48.694;9.120;2023-03-21T11:38:58;1.87;;;1.80;;
703;SDS011;335;48.694;9.120;2023-03-21T11:41:28;2.43;;;2.33;;
703;SDS011;335;48.694;9.120;2023-03-21T11:43:57;2.50;;;2.40;;
703;SDS011;335;48.694;9.120;2023-03-21T11:46:24;2.97;;;2.77;;
703;SDS011;335;48.694;9.120;2023-03-21T11:48:54;2.97;;;2.77;;
703;SDS011;335;48.694;9.120;2023-03-21T11:56:55;2.03;;;1.43;;
703;SDS011;335;48.694;9.120;2023-03-21T12:05:18;2.90;;;1.93;;
703;SDS011;335;48.694;9.120;2023-03-21T12:13:28;3.67;;;1.80;;
703;SDS011;335;48.694;9.120;2023-03-21T12:22:01;2.13;;;1.80;;
703;SDS011;335;48.694;9.120;2023-03-21T12:24:53;2.63;;;1.80;;
703;SDS011;335;48.694;9.120;2023-03-21T12:30:22;1.70;;;1.60;;
703;SDS011;335;48.694;9.120;2023-03-21T12:35:45;1.80;;;1.70;;
703;SDS011;335;48.694;9.120;2023-03-21T12:38:28;1.83;;;1.70;;
703;SDS011;335;48.694;9.120;2023-03-21T12:41:36;1.77;;;1.67;;
703;SDS011;335;48.694;9.120;2023-03-21T12:46:38;1.40;;;1.30;;
703;SDS011;335;48.694;9.120;2023-03-21T12:51:42;1.77;;;1.43;;
703;SDS011;335;48.694;9.120;2023-03-21T12:54:25;2.07;;;1.40;;
703;SDS011;335;48.694;9.120;2023-03-21T12:57:11;0.70;;;0.70;;
703;SDS011;335;48.694;9.120;2023-03-21T13:02:21;0.90;;;0.90;;
703;SDS011;335;48.694;9.120;2023-03-21T13:04:54;0.97;;;0.97;;
703;SDS011;335;48.694;9.120;2023-03-21T13:07:41;1.23;;;1.13;;
703;SDS011;335;48.694;9.120;2023-03-21T13:10:12;1.73;;;1.53;;
703;SDS011;335;48.694;9.120;2023-03-21T13:12:41;0.90;;;0.90;;
703;SDS011;335;48.694;9.120;2023-03-21T13:15:31;1.37;;;1.03;;
703;SDS011;335;48.694;9.120;2023-03-21T13:21:07;1.10;;;1.00;;
703;SDS011;335;48.694;9.120;2023-03-21T13:23:37;1.23;;;1.20;;
703;SDS011;335;48.694;9.120;2023-03-21T13:26:03;1.13;;;0.70;;
703;SDS011;335;48.694;9.120;2023-03-21T13:28:33;1.63;;;0.80;;
703;SDS011;335;48.694;9.120;2023-03-21T13:31:14;0.50;;;0.50;;
703;SDS011;335;48.694;9.120;2023-03-21T13:33:39;0.60;;;0.60;;
703;SDS011;335;48.694;9.120;2023-03-21T13:36:11;1.30;;;1.30;;
703;SDS011;335;48.694;9.120;2023-03-21T13:38:37;1.60;;;1.30;;
703;SDS011;335;48.694;9.120;2023-03-21T13:46:36;1.63;;;1.63;;
703;SDS011;335;48.694;9.120;2023-03-21T13:51:43;1.90;;;1.80;;
703;SDS011;335;48.694;9.120;2023-03-21T14:04:36;1.33;;;1.23;;
703;SDS011;335;48.694;9.120;2023-03-21T14:07:07;1.40;;;1.40;;
703;SDS011;335;48.694;9.120;2023-03-21T14:09:37;3.47;;;1.77;;
703;SDS011;335;48.694;9.120;2023-03-21T14:12:05;2.03;;;1.93;;
703;SDS011;335;48.694;9.120;2023-03-21T14:14:36;1.87;;;1.70;;
703;SDS011;335;48.694;9.120;2023-03-21T14:20:02;2.17;;;2.07;;
703;SDS011;335;48.694;9.120;2023-03-21T14:22:37;1.90;;;1.80;;
703;SDS011;335;48.694;9.120;2023-03-21T14:25:05;1.93;;;1.83;;
703;SDS011;335;48.694;9.120;2023-03-21T14:27:33;2.07;;;1.97;;
703;SDS011;335;48.694;9.120;2023-03-21T14:29:59;1.80;;;1.70;;
703;SDS011;335;48.694;9.120;2023-03-21T14:32:26;2.03;;;1.93;;
703;SDS011;335;48.694;9.120;2023-03-21T14:34:56;1.57;;;1.47;;
703;SDS011;335;48.694;9.120;2023-03-21T14:37:32;2.30;;;2.20;;
703;SDS011;335;48.694;9.120;2023-03-21T14:40:02;3.80;;;2.20;;
703;SDS011;335;48.694;9.120;2023-03-21T14:42:33;1.83;;;1.73;;
703;SDS011;335;48.694;9.120;2023-03-21T14:45:09;1.60;;;1.50;;
703;SDS011;335;48.694;9.120;2023-03-21T14:47:38;2.40;;;2.20;;
703;SDS011;335;48.694;9.120;2023-03-21T14:50:05;2.17;;;2.07;;
703;SDS011;335;48.694;9.120;2023-03-21T14:52:31;1.77;;;1.73;;
703;SDS011;335;48.694;9.120;2023-03-21T14:54:57;2.27;;;2.17;;
703;SDS011;335;48.694;9.120;2023-03-21T14:57:28;1.70;;;1.60;;
703;SDS011;335;48.694;9.120;2023-03-21T14:59:56;1.80;;;1.70;;
703;SDS011;335;48.694;9.120;2023-03-21T15:02:31;1.50;;;1.50;;
703;SDS011;335;48.694;9.120;2023-03-21T15:05:04;1.57;;;1.47;;
703;SDS011;335;48.694;9.120;2023-03-21T15:07:52;1.90;;;1.80;;
703;SDS011;335;48.694;9.120;2023-03-21T15:10:22;1.70;;;1.60;;
703;SDS011;335;48.694;9.120;2023-03-21T15:12:48;1.73;;;1.50;;
703;SDS011;335;48.694;9.120;2023-03-21T15:15:25;1.70;;;1.60;;
703;SDS011;335;48.694;9.120;2023-03-21T15:17:52;1.57;;;1.47;;
703;SDS011;335;48.694;9.120;2023-03-21T15:20:19;1.00;;;1.00;;
703;SDS011;335;48.694;9.120;2023-03-21T15:23:09;0.60;;;0.60;;
703;SDS011;335;48.694;9.120;2023-03-21T15:26:17;0.67;;;0.67;;
703;SDS011;335;48.694;9.120;2023-03-21T15:28:44;0.50;;;0.50;;
703;SDS011;335;48.694;9.120;2023-03-21T15:31:15;1.47;;;0.70;;
703;SDS011;335;48.694;9.120;2023-03-21T15:33:49;1.37;;;1.00;;
703;SDS011;335;48.694;9.120;2023-03-21T15:36:25;0.80;;;0.80;;
703;SDS011;335;48.694;9.120;2023-03-21T15:38:52;0.80;;;0.80;;
703;SDS011;335;48.694;9.120;2023-03-21T15:43:44;1.10;;;1.10;;
703;SDS011;335;48.694;9.120;2023-03-21T15:46:15;1.13;;;0.97;;
703;SDS011;335;48.694;9.120;2023-03-21T15:48:42;1.00;;;1.00;;
703;SDS011;335;48.694;9.120;2023-03-21T15:51:13;2.20;;;1.00;;
703;SDS011;335;48.694;9.120;2023-03-21T15:53:47;1.03;;;1.03;;
703;SDS011;335;48.694;9.120;2023-03-21T15:56:12;2.67;;;1.83;;
703;SDS011;335;48.694;9.120;2023-03-21T15:58:43;2.57;;;2.37;;
703;SDS011;335;48.694;9.120;2023-03-21T16:01:12;3.00;;;2.50;;
703;SDS011;335;48.694;9.120;2023-03-21T16:03:44;2.30;;;2.10;;
703;SDS011;335;48.694;9.120;2023-03-21T16:08:43;2.33;;;2.23;;
703;SDS011;335;48.694;9.120;2023-03-21T16:11:16;2.37;;;2.20;;
703;SDS011;335;48.694;9.120;2023-03-21T16:13:42;2.80;;;2.60;;
703;SDS011;335;48.694;9.120;2023-03-21T16:16:12;3.37;;;2.60;;
703;SDS011;335;48.694;9.120;2023-03-21T16:18:40;2.80;;;1.83;;
703;SDS011;335;48.694;9.120;2023-03-21T16:21:08;2.60;;;2.40;;
703;SDS011;335;48.694;9.120;2023-03-21T16:23:35;3.17;;;2.87;;
703;SDS011;335;48.694;9.120;2023-03-21T16:26:00;3.17;;;2.97;;
703;SDS011;335;48.694;9.120;2023-03-21T16:28:28;3.37;;;3.13;;
703;SDS011;335;48.694;9.120;2023-03-21T16:30:53;3.00;;;2.80;;
703;SDS011;335;48.694;9.120;2023-03-21T16:33:18;2.77;;;2.57;;
703;SDS011;335;48.694;9.120;2023-03-21T16:35:44;2.80;;;2.60;;
703;SDS011;335;48.694;9.120;2023-03-21T16:38:10;3.33;;;2.97;;
703;SDS011;335;48.694;9.120;2023-03-21T16:40:37;5.20;;;2.80;;
703;SDS011;335;48.694;9.120;2023-03-21T16:43:04;3.10;;;2.83;;
703;SDS011;335;48.694;9.120;2023-03-21T16:45:30;3.50;;;2.90;;
703;SDS011;335;48.694;9.120;2023-03-21T16:47:56;3.23;;;2.93;;
703;SDS011;335;48.694;9.120;2023-03-21T16:50:29;3.10;;;2.90;;
703;SDS011;335;48.694;9.120;2023-03-21T16:53:06;2.90;;;2.67;;
703;SDS011;335;48.694;9.120;2023-03-21T16:55:31;3.07;;;2.67;;
703;SDS011;335;48.694;9.120;2023-03-21T16:57:58;4.93;;;3.50;;
703;SDS011;335;48.694;9.120;2023-03-21T17:00:25;3.27;;;3.07;;
703;SDS011;335;48.694;9.120;2023-03-21T17:02:52;4.40;;;3.93;;
703;SDS011;335;48.694;9.120;2023-03-21T17:05:19;4.17;;;2.87;;
703;SDS011;335;48.694;9.120;2023-03-21T17:07:45;3.83;;;2.80;;
703;SDS011;335;48.694;9.120;2023-03-21T17:12:49;3.47;;;2.83;;
703;SDS011;335;48.694;9.120;2023-03-21T17:15:15;3.63;;;3.23;;
703;SDS011;335;48.694;9.120;2023-03-21T17:17:41;5.20;;;3.40;;
703;SDS011;335;48.694;9.120;2023-03-21T17:20:15;3.47;;;3.10;;
703;SDS011;335;48.694;9.120;2023-03-21T17:22:42;3.43;;;3.23;;
703;SDS011;335;48.694;9.120;2023-03-21T17:25:08;3.57;;;3.20;;
703;SDS011;335;48.694;9.120;2023-03-21T17:27:33;3.80;;;3.60;;
703;SDS011;335;48.694;9.120;2023-03-21T17:29:59;3.20;;;2.87;;
703;SDS011;335;48.694;9.120;2023-03-21T17:32:25;3.00;;;2.87;;